Weather History for KRRL - October, 2013

Change the Weather History Date:

Tuesday, October 8, 2013

  Actual Average Record
Temperature  
Mean Temperature 52 °F -  
Max Temperature 72 °F 57 °F 86 °F (1909)
Min Temperature 31 °F 36 °F 22 °F (1976)
Degree Days  
Heating Degree Days 14    
Growing Degree Days 2 (Base 50)    
Moisture  
Dew Point 41 °F    
Average Humidity 68    
Maximum Humidity 100    
Minimum Humidity 39    
Precipitation  
Precipitation 0.00 in - - ()
Sea Level Pressure  
Sea Level Pressure 30.05 in    
Wind  
Wind Speed 3 mph (South)    
Max Wind Speed 16 mph    
Max Gust Speed 23 mph    
Visibility 10 miles    
Events      
Averages and records for this station are not official NWS values.
T = Trace of Precipitation, MM = Missing Value Source: NWS Daily Summary

Daily Weather History Graph

Daily Weather History Graph

Search for Another Location

Airport or City:

Trip Planner

Search our weather history database for the weather conditions in past years. The results will help you decide how hot, cold, wet, or windy it might be!

Date:

Astronomy

Oct. 08, 2013 Rise Set
Actual Time 7:06 AM CDT 6:25 PM CDT
Civil Twilight 6:36 AM CDT 6:55 PM CDT
Nautical Twilight 6:02 AM CDT 7:29 PM CDT
Astronomical Twilight 5:28 AM CDT 8:03 PM CDT
Moon 11:10 AM CDT (10/8) 8:51 PM CDT (10/8)
Length of Visible Light 12h 18m
Length of Day
11h 19m
Waxing Crescent, 16% of the Moon is Illuminated
Oct 8
Waxing Crescent
Oct 11
First Quarter
Oct 18
Full
Oct 26
Last Quarter
Nov 3
New

Hourly Weather History & Observations

Time (CDT) Temp. Dew Point Humidity Pressure Visibility Wind Dir Wind Speed Gust Speed Precip Events Conditions
12:15 AM 34.0 °F 33.8 °F 99% 30.05 in 10.0 mi Calm Calm - N/A   Clear
12:35 AM 34.0 °F 33.8 °F 99% 30.05 in 10.0 mi Calm Calm - N/A   Clear
12:55 AM 33.8 °F 33.6 °F 99% 30.05 in 10.0 mi Calm Calm - N/A   Clear
1:15 AM 33.4 °F 32.9 °F 98% 30.05 in 7.0 mi Calm Calm - N/A   Clear
1:35 AM 34.3 °F 34.0 °F 99% 30.06 in 10.0 mi Calm Calm - N/A   Clear
1:55 AM 32.7 °F 32.0 °F 97% 30.06 in 7.0 mi Calm Calm - N/A   Clear
2:15 AM 32.4 °F 32.0 °F 99% 30.06 in 10.0 mi Calm Calm - N/A   Clear
2:35 AM 32.4 °F 32.0 °F 99% 30.06 in 10.0 mi Calm Calm - N/A   Clear
2:55 AM 32.9 °F 32.2 °F 97% 30.06 in 10.0 mi Calm Calm - N/A   Clear
3:15 AM 31.8 °F 31.1 °F 97% 30.07 in 10.0 mi Calm Calm - N/A   Clear
3:35 AM 32.2 °F 32.0 °F 99% 30.07 in 10.0 mi Calm Calm - N/A   Clear
3:55 AM 33.3 °F 32.9 °F 99% 30.07 in 10.0 mi Calm Calm - N/A   Clear
4:15 AM 32.2 °F 32.0 °F 99% 30.07 in 10.0 mi Calm Calm - N/A   Clear
4:35 AM 32.5 °F 31.6 °F 96% 30.07 in 10.0 mi Calm Calm - N/A   Clear
4:55 AM 32.0 °F 31.6 °F 99% 30.07 in 10.0 mi Calm Calm - N/A   Clear
5:15 AM 32.0 °F 31.5 °F 98% 30.07 in 10.0 mi Calm Calm - N/A   Clear
5:35 AM 33.1 °F 32.5 °F 98% 30.08 in 10.0 mi Calm Calm - N/A   Clear
5:55 AM 32.5 °F 32.0 °F 98% 30.09 in 10.0 mi Calm Calm - N/A   Clear
6:15 AM 31.1 °F 30.7 °F 99% 30.09 in 10.0 mi Calm Calm - N/A   Clear
6:35 AM 31.6 °F 31.5 °F 99% 30.09 in 10.0 mi Calm Calm - N/A   Clear
6:55 AM 32.0 °F 32.0 °F 100% 30.10 in 10.0 mi Calm Calm - N/A   Clear
7:15 AM 32.0 °F 31.8 °F 99% 30.10 in 10.0 mi Calm Calm - N/A   Clear
7:35 AM 32.9 °F 32.2 °F 97% 30.09 in 10.0 mi Calm Calm - N/A   Clear
7:55 AM 35.6 °F 34.9 °F 97% 30.09 in 10.0 mi Calm Calm - N/A   Clear
8:15 AM 38.1 °F 37.2 °F 97% 30.09 in 10.0 mi Calm Calm - N/A   Clear
8:35 AM 44.1 °F 41.2 °F 90% 30.09 in 10.0 mi Calm Calm - N/A   Clear
8:55 AM 46.9 °F 42.6 °F 85% 30.09 in 10.0 mi SE 3.5 mph - N/A   Clear
9:15 AM 50.2 °F 43.2 °F 77% 30.09 in 10.0 mi SSE 3.5 mph - N/A   Clear
9:35 AM 53.6 °F 44.8 °F 72% 30.08 in 10.0 mi South 3.5 mph - N/A   Clear
9:55 AM 57.0 °F 44.4 °F 63% 30.08 in 10.0 mi South 4.6 mph - N/A   Clear
10:15 AM 59.5 °F 43.5 °F 55% 30.07 in 10.0 mi South 9.2 mph - N/A   Clear
10:35 AM 60.8 °F 44.1 °F 54% 30.07 in 10.0 mi SSW 9.2 mph - N/A   Clear
10:55 AM 61.5 °F 44.1 °F 53% 30.07 in 10.0 mi South 12.7 mph 17.3 mph N/A   Clear
11:15 AM 62.6 °F 45.0 °F 52% 30.06 in 10.0 mi South 9.2 mph - N/A   Clear
11:35 AM 63.9 °F 45.3 °F 51% 30.06 in 10.0 mi South 9.2 mph - N/A   Clear
11:55 AM 65.5 °F 45.7 °F 49% 30.06 in 10.0 mi South 8.1 mph - N/A   Clear
12:15 PM 66.6 °F 45.7 °F 47% 30.05 in 10.0 mi South 11.5 mph 16.1 mph N/A   Clear
12:35 PM 68.0 °F 46.2 °F 46% 30.05 in 10.0 mi South 11.5 mph 16.1 mph N/A   Clear
12:55 PM 69.1 °F 46.2 °F 44% 30.04 in 10.0 mi South 12.7 mph - N/A   Clear
1:15 PM 70.7 °F 46.9 °F 43% 30.03 in 10.0 mi South 11.5 mph 16.1 mph N/A   Clear
1:35 PM 70.7 °F 45.3 °F 40% 30.03 in 10.0 mi SW 16.1 mph 19.6 mph N/A   Clear
1:55 PM 70.9 °F 45.0 °F 39% 30.02 in 10.0 mi South 13.8 mph 21.9 mph N/A   Clear
2:15 PM 71.2 °F 45.0 °F 39% 30.02 in 10.0 mi SSW 12.7 mph 21.9 mph N/A   Clear
2:35 PM 71.6 °F 45.5 °F 39% 30.01 in 10.0 mi SSW 15.0 mph 23.0 mph N/A   Clear
2:55 PM 72.0 °F 46.4 °F 40% 30.01 in 10.0 mi SSW 10.4 mph 17.3 mph N/A   Clear
3:15 PM 71.8 °F 46.8 °F 41% 30.01 in 10.0 mi SSW 12.7 mph 19.6 mph N/A   Clear
3:35 PM 71.8 °F 46.6 °F 41% 30.01 in 10.0 mi SSW 12.7 mph 18.4 mph N/A   Clear
3:55 PM 71.2 °F 45.9 °F 40% 30.00 in 10.0 mi SW 12.7 mph 18.4 mph N/A   Clear
4:15 PM 70.2 °F 45.3 °F 41% 30.00 in 10.0 mi South 10.4 mph 16.1 mph N/A   Clear
4:35 PM 69.1 °F 44.6 °F 41% 30.00 in 10.0 mi South 8.1 mph 16.1 mph N/A   Clear
4:55 PM 69.1 °F 47.1 °F 45% 30.00 in 10.0 mi South 4.6 mph - N/A   Clear
5:15 PM 69.1 °F 45.7 °F 43% 29.99 in 10.0 mi South 5.8 mph - N/A   Clear
5:35 PM 68.2 °F 46.4 °F 46% 30.00 in 10.0 mi South 5.8 mph - N/A   Clear
5:55 PM 67.1 °F 46.4 °F 47% 30.01 in 10.0 mi South 9.2 mph - N/A   Clear
6:15 PM 65.8 °F 45.5 °F 48% 30.01 in 10.0 mi South 8.1 mph - N/A   Clear
6:35 PM 64.6 °F 45.1 °F 49% 30.01 in 10.0 mi South 5.8 mph - N/A   Clear
6:55 PM 63.5 °F 45.0 °F 51% 30.01 in 10.0 mi South 5.8 mph - N/A   Clear
7:15 PM 62.6 °F 44.8 °F 52% 30.02 in 10.0 mi South 5.8 mph - N/A   Clear
7:35 PM 61.7 °F 44.6 °F 53% 30.02 in 10.0 mi SSE 4.6 mph - N/A   Clear
7:55 PM 61.3 °F 44.6 °F 54% 30.03 in 10.0 mi South 5.8 mph - N/A   Clear
8:15 PM 60.8 °F 44.6 °F 55% 30.03 in 10.0 mi SSE 3.5 mph - N/A   Clear
8:35 PM 58.8 °F 44.8 °F 60% 30.04 in 10.0 mi Calm Calm - N/A   Clear
8:55 PM 57.2 °F 44.8 °F 63% 30.04 in 10.0 mi SE 4.6 mph - N/A   Clear
9:15 PM 56.1 °F 44.8 °F 66% 30.04 in 10.0 mi SE 4.6 mph - N/A   Clear
9:35 PM 57.2 °F 45.1 °F 64% 30.04 in 10.0 mi SSE 5.8 mph - N/A   Clear
9:55 PM 59.7 °F 45.3 °F 59% 30.04 in 10.0 mi South 5.8 mph - N/A   Clear
10:15 PM 62.6 °F 44.8 °F 52% 30.04 in 10.0 mi South 10.4 mph - N/A   Clear
10:35 PM 61.9 °F 44.8 °F 53% 30.05 in 10.0 mi South 6.9 mph - N/A   Clear
10:55 PM 61.2 °F 45.0 °F 55% 30.05 in 10.0 mi SSW 8.1 mph - N/A   Clear
11:15 PM 61.0 °F 45.0 °F 56% 30.05 in 10.0 mi South 5.8 mph - N/A   Clear
11:35 PM 60.8 °F 45.0 °F 56% 30.05 in 10.0 mi South 5.8 mph - N/A   Clear
11:55 PM 60.1 °F 45.0 °F 57% 30.05 in 10.0 mi South 6.9 mph - N/A   Clear